createdAt,value
2023-01-19T00:00:51.784Z,-2.94
2023-01-19T00:03:18.577Z,-2.95
2023-01-19T00:05:45.569Z,-2.98
2023-01-19T00:08:15.994Z,-2.97
2023-01-19T00:10:44.909Z,-2.99
2023-01-19T00:13:11.658Z,-2.95
2023-01-19T00:15:38.390Z,-2.97
2023-01-19T00:18:05.646Z,-3.02
2023-01-19T00:20:32.912Z,-3.04
2023-01-19T00:23:00.236Z,-3.06
2023-01-19T00:25:27.760Z,-3.05
2023-01-19T00:27:54.564Z,-3.05
2023-01-19T00:30:21.645Z,-3.03
2023-01-19T00:32:48.337Z,-3.01
2023-01-19T00:35:15.615Z,-3.08
2023-01-19T00:37:45.994Z,-3.14
2023-01-19T00:40:14.255Z,-3.14
2023-01-19T00:42:44.451Z,-3.07
2023-01-19T00:45:14.858Z,-3.10
2023-01-19T00:47:41.985Z,-3.14
2023-01-19T00:50:13.237Z,-3.16
2023-01-19T00:52:41.066Z,-3.09
2023-01-19T00:55:09.169Z,-3.10
2023-01-19T00:57:35.989Z,-3.15
2023-01-19T01:00:06.350Z,-3.16
2023-01-19T01:02:33.679Z,-3.12
2023-01-19T01:05:02.956Z,-3.10
2023-01-19T01:07:30.723Z,-3.08
2023-01-19T01:09:57.557Z,-3.07
2023-01-19T01:12:24.646Z,-3.05
2023-01-19T01:14:51.367Z,-3.04
2023-01-19T01:17:18.084Z,-3.06
2023-01-19T01:19:44.774Z,-3.08
2023-01-19T01:22:11.491Z,-3.06
2023-01-19T01:24:38.302Z,-3.02
2023-01-19T01:27:04.952Z,-3.02
2023-01-19T01:29:31.661Z,-3.06
2023-01-19T01:31:58.415Z,-3.02
2023-01-19T01:34:25.104Z,-3.01
2023-01-19T01:36:51.806Z,-3.01
2023-01-19T01:39:18.431Z,-3.04
2023-01-19T01:41:45.191Z,-3.03
2023-01-19T01:44:54.041Z,-3.01
2023-01-19T01:47:32.821Z,-3.04
2023-01-19T01:50:13.634Z,-2.98
2023-01-19T01:53:13.836Z,-3.00
2023-01-19T01:55:48.118Z,-3.04
2023-01-19T01:58:16.306Z,-3.05
2023-01-19T02:01:02.036Z,-3.03
2023-01-19T02:03:29.313Z,-2.98
2023-01-19T02:06:00.810Z,-3.04
2023-01-19T02:09:06.060Z,-3.02
2023-01-19T02:11:52.391Z,-3.05
2023-01-19T02:14:19.125Z,-3.04
2023-01-19T02:16:46.563Z,-3.03
2023-01-19T02:19:22.076Z,-3.02
2023-01-19T02:21:54.757Z,-2.99
2023-01-19T02:24:22.021Z,-2.98
2023-01-19T02:26:49.120Z,-2.98
2023-01-19T02:29:19.376Z,-2.99
2023-01-19T02:31:46.814Z,-2.99
2023-01-19T02:34:17.180Z,-3.02
2023-01-19T02:36:50.092Z,-3.04
2023-01-19T02:39:20.420Z,-2.99
2023-01-19T02:41:52.897Z,-3.00
2023-01-19T02:44:21.391Z,-3.02
2023-01-19T02:46:48.379Z,-3.06
2023-01-19T02:49:15.117Z,-3.07
2023-01-19T02:51:44.521Z,-3.01
2023-01-19T02:54:14.128Z,-3.06
2023-01-19T02:56:53.046Z,-3.09
2023-01-19T02:59:58.753Z,-3.10
2023-01-19T03:02:38.722Z,-3.00
2023-01-19T03:05:16.428Z,-3.00
2023-01-19T03:08:10.723Z,-3.03
2023-01-19T03:11:18.551Z,-3.06
2023-01-19T03:13:51.725Z,-3.07
2023-01-19T03:16:39.764Z,-3.07
2023-01-19T03:19:17.925Z,-3.09
2023-01-19T03:21:58.000Z,-3.08
2023-01-19T03:24:28.707Z,-3.06
2023-01-19T03:27:02.819Z,-3.04
2023-01-19T03:29:34.941Z,-2.97
2023-01-19T03:32:06.366Z,-2.92
2023-01-19T03:34:35.515Z,-2.90
2023-01-19T03:37:04.585Z,-2.90
2023-01-19T03:39:31.746Z,-2.90
2023-01-19T03:42:03.133Z,-2.93
2023-01-19T03:44:33.115Z,-2.92
2023-01-19T03:47:00.348Z,-2.91
2023-01-19T03:49:28.363Z,-2.87
2023-01-19T03:51:59.289Z,-2.81
2023-01-19T03:54:26.514Z,-2.88
2023-01-19T03:56:53.109Z,-2.92
2023-01-19T03:59:21.784Z,-2.93
2023-01-19T04:01:49.077Z,-2.96
2023-01-19T04:04:15.787Z,-2.94
2023-01-19T04:06:43.105Z,-2.93
2023-01-19T04:09:09.855Z,-2.95
2023-01-19T04:11:36.529Z,-2.92
2023-01-19T04:14:03.235Z,-3.00
2023-01-19T04:16:29.889Z,-3.01
2023-01-19T04:18:57.375Z,-3.00
2023-01-19T04:21:23.977Z,-2.99
2023-01-19T04:23:50.862Z,-2.89
2023-01-19T04:26:18.294Z,-2.82
2023-01-19T04:28:45.041Z,-2.74
2023-01-19T04:31:12.576Z,-2.72
2023-01-19T04:33:39.279Z,-2.61
2023-01-19T04:36:06.301Z,-2.57
2023-01-19T04:38:32.895Z,-2.55
2023-01-19T04:40:59.621Z,-2.51
2023-01-19T04:43:26.400Z,-2.49
2023-01-19T04:45:53.083Z,-2.48
2023-01-19T04:48:19.957Z,-2.42
2023-01-19T04:50:47.341Z,-2.35
2023-01-19T04:53:16.292Z,-2.33
2023-01-19T04:55:42.988Z,-2.33
2023-01-19T04:58:10.129Z,-2.32
2023-01-19T05:00:37.035Z,-2.29
2023-01-19T05:03:04.728Z,-2.26
2023-01-19T05:05:33.195Z,-2.21
2023-01-19T05:08:00.647Z,-2.20
2023-01-19T05:10:27.315Z,-2.19
2023-01-19T05:12:54.021Z,-2.14
2023-01-19T05:15:20.666Z,-2.16
2023-01-19T05:17:48.038Z,-2.13
2023-01-19T05:20:16.344Z,-2.13
2023-01-19T05:22:48.449Z,-2.09
2023-01-19T05:25:15.123Z,-2.14
2023-01-19T05:27:41.826Z,-2.13
2023-01-19T05:30:09.583Z,-2.10
2023-01-19T05:32:36.227Z,-2.07
2023-01-19T05:35:03.018Z,-2.05
2023-01-19T05:37:29.736Z,-2.09
2023-01-19T05:39:56.473Z,-2.06
2023-01-19T05:42:23.107Z,-2.13
2023-01-19T05:44:49.791Z,-2.06
2023-01-19T05:47:16.514Z,-2.00
2023-01-19T05:49:43.217Z,-2.01
2023-01-19T05:52:09.963Z,-1.99
2023-01-19T05:54:36.748Z,-2.02
2023-01-19T05:57:04.566Z,-2.01
2023-01-19T05:59:31.308Z,-2.04
2023-01-19T06:01:59.923Z,-1.99
2023-01-19T06:04:27.045Z,-2.01
2023-01-19T06:06:53.701Z,-2.05
2023-01-19T06:09:20.490Z,-2.01
2023-01-19T06:11:47.475Z,-2.03
2023-01-19T06:14:14.214Z,-2.00
2023-01-19T06:16:41.196Z,-2.03
2023-01-19T06:19:07.934Z,-2.05
2023-01-19T06:21:34.767Z,-2.08
2023-01-19T06:24:01.830Z,-2.10
2023-01-19T06:26:28.570Z,-2.16
2023-01-19T06:28:55.677Z,-2.21
2023-01-19T06:31:22.401Z,-2.21
2023-01-19T06:33:49.173Z,-2.23
2023-01-19T06:36:15.929Z,-2.23
2023-01-19T06:38:42.561Z,-2.31
2023-01-19T06:41:09.189Z,-2.31
2023-01-19T06:43:35.919Z,-2.37
2023-01-19T06:46:03.528Z,-2.43
2023-01-19T06:48:30.212Z,-2.45
2023-01-19T06:50:58.751Z,-2.46
2023-01-19T06:53:28.087Z,-2.43
2023-01-19T06:56:02.444Z,-2.48
2023-01-19T06:58:30.222Z,-2.47
2023-01-19T07:01:04.778Z,-2.47
2023-01-19T07:03:32.182Z,-2.53
2023-01-19T07:06:02.345Z,-2.56
2023-01-19T07:08:30.046Z,-2.54
2023-01-19T07:11:26.317Z,-2.53
2023-01-19T07:13:51.720Z,-2.54
2023-01-19T07:16:18.825Z,-2.61
2023-01-19T07:18:48.720Z,-2.57
2023-01-19T07:21:15.589Z,-2.59
2023-01-19T07:23:43.408Z,-2.61
2023-01-19T07:26:10.897Z,-2.60
2023-01-19T07:28:37.516Z,-2.62
2023-01-19T07:31:04.502Z,-2.59
2023-01-19T07:33:31.251Z,-2.55
2023-01-19T07:35:58.417Z,-2.59
2023-01-19T07:38:25.338Z,-2.57
2023-01-19T07:40:51.977Z,-2.56
2023-01-19T07:43:18.563Z,-2.54
2023-01-19T07:45:45.661Z,-2.52
2023-01-19T07:48:12.330Z,-2.55
2023-01-19T07:50:39.042Z,-2.53
2023-01-19T07:53:07.787Z,-2.44
2023-01-19T07:55:34.881Z,-2.38
2023-01-19T07:58:01.676Z,-2.34
2023-01-19T08:00:28.420Z,-2.26
2023-01-19T08:03:00.627Z,-2.18
2023-01-19T08:05:29.262Z,-2.14
2023-01-19T08:07:57.668Z,-2.11
2023-01-19T08:10:29.191Z,-2.06
2023-01-19T08:12:57.737Z,-1.98
2023-01-19T08:15:25.304Z,-1.94
2023-01-19T08:18:02.882Z,-1.85
2023-01-19T08:20:30.055Z,-1.81
2023-01-19T08:23:00.454Z,-1.82
2023-01-19T08:25:33.394Z,-1.75
2023-01-19T08:28:00.394Z,-1.75
2023-01-19T08:30:27.854Z,-1.69
2023-01-19T08:32:58.273Z,-1.63
2023-01-19T08:35:25.140Z,-1.58
2023-01-19T08:37:51.805Z,-1.60
2023-01-19T08:40:18.535Z,-1.66
2023-01-19T08:42:45.560Z,-1.60
2023-01-19T08:45:12.336Z,-1.66
2023-01-19T08:47:39.115Z,-1.66
2023-01-19T08:50:06.355Z,-1.60
2023-01-19T08:52:33.177Z,-1.61
2023-01-19T08:55:00.780Z,-1.54
2023-01-19T08:57:28.096Z,-1.53
2023-01-19T08:59:54.718Z,-1.50
2023-01-19T09:02:21.574Z,-1.48
2023-01-19T09:04:49.023Z,-1.50
2023-01-19T09:07:15.757Z,-1.47
2023-01-19T09:09:43.553Z,-1.46
2023-01-19T09:12:10.230Z,-1.37
2023-01-19T09:14:36.863Z,-1.37
2023-01-19T09:17:04.353Z,-1.39
2023-01-19T09:19:30.998Z,-1.33
2023-01-19T09:21:59.505Z,-1.30
2023-01-19T09:24:26.465Z,-1.25
2023-01-19T09:26:53.105Z,-1.20
2023-01-19T09:29:19.848Z,-1.21
2023-01-19T09:31:46.475Z,-1.14
2023-01-19T09:34:13.189Z,-1.11
2023-01-19T09:36:40.024Z,-1.13
2023-01-19T09:39:06.849Z,-1.11
2023-01-19T09:41:36.173Z,-1.11
2023-01-19T09:44:03.582Z,-1.08
2023-01-19T09:46:43.207Z,-1.01
2023-01-19T09:49:21.649Z,-0.96
2023-01-19T09:51:50.607Z,-0.88
2023-01-19T09:54:27.865Z,-0.77
2023-01-19T09:56:54.489Z,-0.72
2023-01-19T09:59:32.471Z,-0.59
2023-01-19T10:02:19.505Z,-0.58
2023-01-19T10:04:58.341Z,-0.53
2023-01-19T10:07:44.282Z,-0.50
2023-01-19T10:10:27.089Z,-0.55
2023-01-19T10:13:04.316Z,-0.47
2023-01-19T10:16:08.789Z,-0.55
2023-01-19T10:18:47.853Z,-0.50
2023-01-19T10:21:14.452Z,-0.43
2023-01-19T10:23:46.315Z,-0.40
2023-01-19T10:26:20.462Z,-0.23
2023-01-19T10:28:49.076Z,-0.11
2023-01-19T10:31:19.224Z,-0.05
2023-01-19T10:33:46.038Z,0.03
2023-01-19T10:36:24.285Z,0.00
2023-01-19T10:38:52.120Z,-0.06
2023-01-19T10:41:28.469Z,-0.01
2023-01-19T10:44:05.990Z,-0.06
2023-01-19T10:46:46.633Z,-0.09
2023-01-19T10:49:36.969Z,-0.11
2023-01-19T10:52:06.499Z,-0.23
2023-01-19T10:54:34.795Z,-0.22
2023-01-19T10:57:04.421Z,-0.23
2023-01-19T10:59:44.864Z,-0.19
2023-01-19T11:02:29.737Z,-0.32
2023-01-19T11:05:02.506Z,-0.27
2023-01-19T11:07:33.014Z,-0.24
2023-01-19T11:10:20.835Z,-0.15
2023-01-19T11:13:13.207Z,0.03
2023-01-19T11:15:55.002Z,0.13
2023-01-19T11:18:24.616Z,0.27
2023-01-19T11:20:53.839Z,0.44
2023-01-19T11:23:27.331Z,0.52
2023-01-19T11:26:01.567Z,0.56
2023-01-19T11:28:44.773Z,0.53
2023-01-19T11:31:11.672Z,0.56
2023-01-19T11:33:45.305Z,0.49
2023-01-19T11:36:30.493Z,0.69
2023-01-19T11:39:21.529Z,0.56
2023-01-19T11:41:55.064Z,0.56
2023-01-19T11:44:27.915Z,0.43
2023-01-19T11:46:59.529Z,0.27
2023-01-19T11:49:38.951Z,0.06
2023-01-19T11:52:25.831Z,-0.14
2023-01-19T11:55:00.987Z,-0.11
2023-01-19T11:57:27.693Z,-0.08
2023-01-19T11:59:55.040Z,0.00
2023-01-19T12:02:32.271Z,-0.02
2023-01-19T12:05:05.607Z,-0.05
2023-01-19T12:07:36.222Z,-0.04
2023-01-19T12:10:16.928Z,-0.12
2023-01-19T12:12:44.079Z,-0.36
2023-01-19T12:15:42.506Z,-0.38
2023-01-19T12:18:35.278Z,-0.37
2023-01-19T12:21:03.964Z,-0.46
2023-01-19T12:23:36.951Z,-0.44
2023-01-19T12:26:30.864Z,-0.46
2023-01-19T12:29:03.794Z,-0.54
2023-01-19T12:31:30.559Z,-0.58
2023-01-19T12:34:27.209Z,-0.37
2023-01-19T12:36:57.987Z,-0.38
2023-01-19T12:39:26.048Z,-0.35
2023-01-19T12:42:18.475Z,-0.23
2023-01-19T12:44:47.999Z,-0.23
2023-01-19T12:47:14.521Z,-0.21
2023-01-19T12:49:55.438Z,-0.27
2023-01-19T12:52:30.906Z,-0.32
2023-01-19T12:55:23.239Z,-0.23
2023-01-19T12:58:15.653Z,-0.14
2023-01-19T13:00:43.890Z,-0.11
2023-01-19T13:03:16.417Z,-0.13
2023-01-19T13:05:43.095Z,-0.28
2023-01-19T13:08:09.665Z,-0.33
2023-01-19T13:11:10.189Z,-0.32
2023-01-19T13:13:59.625Z,-0.25
2023-01-19T13:16:27.531Z,-0.32
2023-01-19T13:19:06.489Z,-0.34
2023-01-19T13:21:44.656Z,-0.38
2023-01-19T13:24:15.786Z,-0.44
2023-01-19T13:26:51.573Z,-0.46
2023-01-19T13:29:40.430Z,-0.44
2023-01-19T13:32:16.055Z,-0.32
2023-01-19T13:34:45.949Z,-0.23
2023-01-19T13:37:19.507Z,-0.29
2023-01-19T13:39:50.056Z,-0.26
2023-01-19T13:42:34.767Z,-0.27
2023-01-19T13:45:07.135Z,-0.36
2023-01-19T13:47:44.304Z,-0.40
2023-01-19T13:50:20.596Z,-0.33
2023-01-19T13:52:48.933Z,-0.33
2023-01-19T13:55:16.426Z,-0.33
2023-01-19T13:57:47.913Z,-0.30
2023-01-19T14:00:26.466Z,-0.29
2023-01-19T14:03:02.655Z,-0.21
2023-01-19T14:05:34.770Z,-0.23
2023-01-19T14:08:11.138Z,-0.30
2023-01-19T14:11:02.340Z,-0.28
2023-01-19T14:13:34.442Z,-0.30
2023-01-19T14:16:23.765Z,-0.31
2023-01-19T14:18:59.121Z,-0.37
2023-01-19T14:21:25.775Z,-0.39
2023-01-19T14:23:55.162Z,-0.39
2023-01-19T14:26:41.833Z,-0.38
2023-01-19T14:29:45.685Z,-0.43
2023-01-19T14:32:14.960Z,-0.44
2023-01-19T14:34:44.935Z,-0.42
2023-01-19T14:37:30.444Z,-0.39
2023-01-19T14:40:12.152Z,-0.43
2023-01-19T14:42:54.735Z,-0.39
2023-01-19T14:45:46.870Z,-0.37
2023-01-19T14:48:18.533Z,-0.39
2023-01-19T14:51:02.115Z,-0.35
2023-01-19T14:53:37.183Z,-0.37
2023-01-19T14:56:06.037Z,-0.39
2023-01-19T14:58:34.681Z,-0.41
2023-01-19T15:01:02.150Z,-0.42
2023-01-19T15:03:44.164Z,-0.45
2023-01-19T15:06:17.294Z,-0.44
2023-01-19T15:08:45.075Z,-0.48
2023-01-19T15:11:26.414Z,-0.51
2023-01-19T15:13:53.249Z,-0.48
2023-01-19T15:16:20.385Z,-0.44
2023-01-19T15:18:47.109Z,-0.36
2023-01-19T15:21:26.831Z,-0.28
2023-01-19T15:23:54.699Z,-0.24
2023-01-19T15:26:26.357Z,-0.20
2023-01-19T15:28:53.407Z,-0.15
2023-01-19T15:31:23.568Z,-0.17
2023-01-19T15:33:50.559Z,-0.18
2023-01-19T15:36:22.243Z,-0.26
2023-01-19T15:38:51.108Z,-0.25
2023-01-19T15:41:24.916Z,-0.25
2023-01-19T15:43:52.054Z,-0.23
2023-01-19T15:46:20.857Z,-0.16
2023-01-19T15:48:48.703Z,-0.25
2023-01-19T15:51:17.704Z,-0.23
2023-01-19T15:53:45.000Z,-0.18
2023-01-19T15:56:19.485Z,-0.22
2023-01-19T15:58:46.265Z,-0.22
2023-01-19T16:01:18.391Z,-0.24
2023-01-19T16:03:46.189Z,-0.25
2023-01-19T16:06:13.686Z,-0.20
2023-01-19T16:08:40.446Z,-0.21
2023-01-19T16:11:09.485Z,-0.15
2023-01-19T16:13:36.825Z,-0.15
2023-01-19T16:16:13.764Z,-0.14
2023-01-19T16:18:40.456Z,-0.16
2023-01-19T16:21:07.140Z,-0.12
2023-01-19T16:23:33.780Z,-0.06
2023-01-19T16:26:07.915Z,-0.03
2023-01-19T16:28:36.215Z,-0.09
2023-01-19T16:31:03.581Z,-0.09
2023-01-19T16:33:30.487Z,-0.06
2023-01-19T16:35:57.153Z,-0.03
2023-01-19T16:38:24.055Z,-0.01
2023-01-19T16:40:50.727Z,-0.06
2023-01-19T16:43:18.612Z,-0.04
2023-01-19T16:46:02.906Z,-0.11
2023-01-19T16:48:29.718Z,-0.20
2023-01-19T16:51:06.741Z,-0.26
2023-01-19T16:53:35.351Z,-0.25
2023-01-19T16:56:07.265Z,-0.27
2023-01-19T16:58:34.819Z,-0.21
2023-01-19T17:01:18.373Z,-0.23
2023-01-19T17:03:46.568Z,-0.20
2023-01-19T17:06:15.475Z,-0.27
2023-01-19T17:08:42.091Z,-0.23
2023-01-19T17:11:14.291Z,-0.19
2023-01-19T17:13:41.207Z,-0.23
2023-01-19T17:16:08.367Z,-0.20
2023-01-19T17:18:37.878Z,-0.13
2023-01-19T17:21:09.485Z,-0.08
2023-01-19T17:23:37.580Z,-0.10
2023-01-19T17:26:05.090Z,-0.10
2023-01-19T17:28:31.748Z,-0.09
2023-01-19T17:31:07.783Z,-0.14
2023-01-19T17:33:34.989Z,-0.14
2023-01-19T17:36:12.485Z,-0.17
2023-01-19T17:38:40.249Z,-0.19
2023-01-19T17:41:14.099Z,-0.11
2023-01-19T17:43:41.023Z,-0.11
2023-01-19T17:46:07.811Z,-0.15
2023-01-19T17:48:34.465Z,-0.11
2023-01-19T17:51:10.170Z,-0.13
2023-01-19T17:53:37.991Z,-0.09
2023-01-19T17:56:10.661Z,-0.08
2023-01-19T17:58:37.505Z,-0.11
2023-01-19T18:01:19.895Z,-0.10
2023-01-19T18:03:46.885Z,-0.12
2023-01-19T18:06:14.169Z,-0.09
2023-01-19T18:08:43.214Z,-0.06
2023-01-19T18:11:10.748Z,-0.03
2023-01-19T18:13:38.070Z,-0.07
2023-01-19T18:16:10.170Z,-0.07
2023-01-19T18:18:37.140Z,-0.05
2023-01-19T18:21:08.929Z,-0.08
2023-01-19T18:23:36.599Z,-0.05
2023-01-19T18:26:11.814Z,-0.08
2023-01-19T18:28:38.799Z,-0.07
2023-01-19T18:31:17.653Z,-0.05
2023-01-19T18:33:47.447Z,-0.04
2023-01-19T18:36:14.872Z,-0.07
2023-01-19T18:38:42.133Z,-0.07
2023-01-19T18:41:12.428Z,-0.07
2023-01-19T18:43:39.776Z,-0.04
2023-01-19T18:46:07.244Z,-0.03
2023-01-19T18:48:34.615Z,-0.06
2023-01-19T18:51:06.557Z,-0.13
2023-01-19T18:53:33.447Z,-0.14
2023-01-19T18:56:04.953Z,-0.10
2023-01-19T18:58:32.810Z,-0.06
2023-01-19T19:01:01.132Z,-0.11
2023-01-19T19:03:28.567Z,-0.12
2023-01-19T19:05:55.828Z,-0.18
2023-01-19T19:08:22.678Z,-0.30
2023-01-19T19:11:14.456Z,-0.25
2023-01-19T19:13:45.911Z,-0.20
2023-01-19T19:16:13.455Z,-0.23
2023-01-19T19:18:40.404Z,-0.23
2023-01-19T19:21:09.801Z,-0.25
2023-01-19T19:23:37.015Z,-0.29
2023-01-19T19:26:09.733Z,-0.27
2023-01-19T19:28:38.249Z,-0.30
2023-01-19T19:31:06.860Z,-0.26
2023-01-19T19:33:34.408Z,-0.25
2023-01-19T19:36:01.229Z,-0.17
2023-01-19T19:38:28.790Z,-0.12
2023-01-19T19:40:57.344Z,-0.12
2023-01-19T19:43:24.901Z,-0.22
2023-01-19T19:46:03.550Z,-0.22
2023-01-19T19:48:46.246Z,-0.25
2023-01-19T19:51:22.768Z,-0.23
2023-01-19T19:53:51.861Z,-0.21
2023-01-19T19:56:23.872Z,-0.21
2023-01-19T19:58:52.160Z,-0.22
2023-01-19T20:01:24.020Z,-0.22
2023-01-19T20:03:52.088Z,-0.17
2023-01-19T20:06:21.848Z,-0.18
2023-01-19T20:08:50.729Z,-0.16
2023-01-19T20:11:23.569Z,-0.18
2023-01-19T20:13:50.931Z,-0.13
2023-01-19T20:16:20.890Z,-0.23
2023-01-19T20:18:51.533Z,-0.21
2023-01-19T20:21:26.034Z,-0.21
2023-01-19T20:23:53.832Z,-0.26
2023-01-19T20:26:25.287Z,-0.38
2023-01-19T20:28:52.377Z,-0.37
2023-01-19T20:31:24.354Z,-0.33
2023-01-19T20:33:53.305Z,-0.35
2023-01-19T20:36:22.135Z,-0.39
2023-01-19T20:38:48.894Z,-0.36
2023-01-19T20:41:15.775Z,-0.34
2023-01-19T20:43:42.580Z,-0.31
2023-01-19T20:46:09.705Z,-0.31
2023-01-19T20:48:36.894Z,-0.32
2023-01-19T20:51:06.980Z,-0.30
2023-01-19T20:53:34.368Z,-0.26
2023-01-19T20:56:06.237Z,-0.25
2023-01-19T20:58:34.041Z,-0.21
2023-01-19T21:01:00.891Z,-0.23
2023-01-19T21:03:29.642Z,-0.19
2023-01-19T21:05:59.405Z,-0.16
2023-01-19T21:08:26.412Z,-0.14
2023-01-19T21:10:57.049Z,-0.14
2023-01-19T21:13:24.147Z,-0.14
2023-01-19T21:15:50.965Z,-0.12
2023-01-19T21:18:17.773Z,-0.10
2023-01-19T21:20:45.238Z,-0.08
2023-01-19T21:23:12.038Z,-0.13
2023-01-19T21:25:38.827Z,-0.15
2023-01-19T21:28:05.996Z,-0.22
2023-01-19T21:30:32.758Z,-0.21
2023-01-19T21:32:59.616Z,-0.33
2023-01-19T21:35:26.321Z,-0.30
2023-01-19T21:37:53.155Z,-0.26
2023-01-19T21:40:20.084Z,-0.22
2023-01-19T21:42:46.945Z,-0.25
2023-01-19T21:45:14.107Z,-0.31
2023-01-19T21:47:41.285Z,-0.32
2023-01-19T21:50:08.709Z,-0.28
2023-01-19T21:52:35.556Z,-0.32
2023-01-19T21:55:02.413Z,-0.40
2023-01-19T21:57:29.149Z,-0.44
2023-01-19T21:59:55.949Z,-0.47
2023-01-19T22:02:37.373Z,-0.53
2023-01-19T22:05:06.701Z,-0.60
2023-01-19T22:07:33.501Z,-0.56
2023-01-19T22:10:00.343Z,-0.62
2023-01-19T22:12:27.192Z,-0.55
2023-01-19T22:14:54.486Z,-0.54
2023-01-19T22:17:21.298Z,-0.47
2023-01-19T22:20:08.999Z,-0.51
2023-01-19T22:22:35.849Z,-0.50
2023-01-19T22:25:03.248Z,-0.48
2023-01-19T22:27:33.349Z,-0.49
2023-01-19T22:30:00.240Z,-0.54
2023-01-19T22:32:27.280Z,-0.52
2023-01-19T22:34:54.253Z,-0.50
2023-01-19T22:37:21.516Z,-0.48
2023-01-19T22:39:48.526Z,-0.48
2023-01-19T22:42:15.301Z,-0.53
2023-01-19T22:44:42.587Z,-0.56
2023-01-19T22:47:12.557Z,-0.56
2023-01-19T22:49:42.413Z,-0.59
2023-01-19T22:52:09.533Z,-0.65
2023-01-19T22:54:36.557Z,-0.65
2023-01-19T22:57:03.616Z,-0.61
2023-01-19T22:59:33.548Z,-0.65
2023-01-19T23:02:00.309Z,-0.65
2023-01-19T23:04:27.089Z,-0.67
2023-01-19T23:06:53.831Z,-0.63
2023-01-19T23:09:20.634Z,-0.62
2023-01-19T23:11:50.504Z,-0.59
2023-01-19T23:14:20.344Z,-0.58
2023-01-19T23:16:47.407Z,-0.55
2023-01-19T23:19:17.271Z,-0.51
2023-01-19T23:21:45.023Z,-0.44
2023-01-19T23:24:11.779Z,-0.43
2023-01-19T23:26:38.959Z,-0.40
2023-01-19T23:29:08.608Z,-0.37
2023-01-19T23:31:37.738Z,-0.33
2023-01-19T23:34:07.821Z,-0.34
2023-01-19T23:36:36.521Z,-0.31
2023-01-19T23:39:06.899Z,-0.27
2023-01-19T23:41:36.773Z,-0.28
2023-01-19T23:44:03.862Z,-0.24
2023-01-19T23:46:31.334Z,-0.23
2023-01-19T23:48:58.109Z,-0.24
2023-01-19T23:51:27.504Z,-0.24
2023-01-19T23:53:54.207Z,-0.27
2023-01-19T23:56:23.336Z,-0.25
2023-01-19T23:58:54.751Z,-0.23
